Terminal Aerodrome Forecast
Issued by NWS Tuscon, AZ

Home | Current Version | Previous Version | Text Only | Print | Product List | Glossary On
Versions: 1 2 3 4 5 6 7 8 9 10 11 12 13 14 15
000
FTUS45 KTWC 070200 AAA
TAFDUG
TAF AMD
KDUG 070249Z 0703/0724 10011KT P6SM BKN250=

USA.gov is the U.S. government's official web portal to all federal, state and local government web resources and services.